createdAt,value
2018-07-15T00:04:00.187Z,18.30
2018-07-15T00:08:03.870Z,18.10
2018-07-15T00:12:07.621Z,18.30
2018-07-15T00:16:15.338Z,18.30
2018-07-15T00:20:24.396Z,18.50
2018-07-15T00:24:28.087Z,18.40
2018-07-15T00:28:36.242Z,18.20
2018-07-15T00:32:43.877Z,18.20
2018-07-15T00:36:51.975Z,18.00
2018-07-15T00:40:55.564Z,17.80
2018-07-15T00:44:59.083Z,17.60
2018-07-15T00:49:02.671Z,17.60
2018-07-15T00:53:06.333Z,17.50
2018-07-15T00:57:09.921Z,17.50
2018-07-15T01:01:13.424Z,17.50
2018-07-15T01:05:17.290Z,17.80
2018-07-15T01:09:20.832Z,18.10
2018-07-15T01:13:25.098Z,17.80
2018-07-15T01:17:54.426Z,17.50
2018-07-15T01:21:58.261Z,17.80
2018-07-15T01:26:01.961Z,17.50
2018-07-15T01:30:05.578Z,17.20
2018-07-15T01:34:09.150Z,17.00
2018-07-15T01:42:17.108Z,17.00
2018-07-15T01:46:20.683Z,17.20
2018-07-15T01:50:24.208Z,16.90
2018-07-15T01:54:28.185Z,16.90
2018-07-15T01:58:31.769Z,16.80
2018-07-15T02:02:36.477Z,16.70
2018-07-15T02:06:40.058Z,16.60
2018-07-15T02:10:43.686Z,16.60
2018-07-15T02:14:47.315Z,16.60
2018-07-15T02:18:50.969Z,16.60
2018-07-15T02:22:54.522Z,16.60
2018-07-15T02:26:58.437Z,16.50
2018-07-15T02:31:02.226Z,16.40
2018-07-15T02:35:06.938Z,16.30
2018-07-15T02:39:11.141Z,16.50
2018-07-15T02:43:14.849Z,16.40
2018-07-15T02:47:18.479Z,16.40
2018-07-15T02:51:22.042Z,16.20
2018-07-15T02:55:25.614Z,16.40
2018-07-15T02:59:29.398Z,16.30
2018-07-15T03:03:32.935Z,16.30
2018-07-15T03:07:36.586Z,16.10
2018-07-15T03:11:40.296Z,16.00
2018-07-15T03:15:44.158Z,16.00
2018-07-15T03:19:47.695Z,16.20
2018-07-15T03:23:51.222Z,16.20
2018-07-15T03:27:54.762Z,15.90
2018-07-15T03:31:59.416Z,15.70
2018-07-15T03:36:07.067Z,15.60
2018-07-15T03:40:10.654Z,15.40
2018-07-15T03:44:14.182Z,15.30
2018-07-15T03:48:17.694Z,15.60
2018-07-15T03:52:21.190Z,15.80
2018-07-15T03:56:24.940Z,15.50
2018-07-15T04:00:28.573Z,15.70
2018-07-15T04:04:32.149Z,15.60
2018-07-15T04:08:35.750Z,15.60
2018-07-15T04:12:39.379Z,15.70
2018-07-15T04:16:43.041Z,15.80
2018-07-15T04:20:46.613Z,15.70
2018-07-15T04:24:54.506Z,15.70
2018-07-15T04:28:58.174Z,15.70
2018-07-15T04:33:01.707Z,15.70
2018-07-15T04:41:08.619Z,15.80
2018-07-15T04:45:12.195Z,16.10
2018-07-15T04:49:15.718Z,16.20
2018-07-15T04:53:19.254Z,16.20
2018-07-15T04:57:22.910Z,16.20
2018-07-15T05:01:26.590Z,16.20
2018-07-15T05:05:30.097Z,16.30
2018-07-15T05:09:33.649Z,16.40
2018-07-15T05:13:37.164Z,16.70
2018-07-15T05:17:40.745Z,16.70
2018-07-15T05:21:44.294Z,16.60
2018-07-15T05:25:47.857Z,16.60
2018-07-15T05:29:51.395Z,16.70
2018-07-15T05:33:54.971Z,17.00
2018-07-15T05:37:59.519Z,17.30
2018-07-15T05:42:03.150Z,17.50
2018-07-15T05:46:06.671Z,17.80
2018-07-15T05:50:10.427Z,17.80
2018-07-15T05:54:13.974Z,18.00
2018-07-15T05:58:17.664Z,18.20
2018-07-15T06:02:21.203Z,18.40
2018-07-15T06:06:25.882Z,18.60
2018-07-15T06:10:29.378Z,18.90
2018-07-15T06:14:32.982Z,19.20
2018-07-15T06:18:36.628Z,19.40
2018-07-15T06:22:40.258Z,19.60
2018-07-15T06:26:43.847Z,20.20
2018-07-15T06:30:47.387Z,21.20
2018-07-15T06:34:50.948Z,21.40
2018-07-15T06:38:54.504Z,22.00
2018-07-15T06:42:58.122Z,23.90
2018-07-15T06:47:01.706Z,24.90
2018-07-15T06:51:05.270Z,25.40
2018-07-15T06:55:09.249Z,25.60
2018-07-15T06:59:13.074Z,26.10
2018-07-15T07:03:16.624Z,26.90
2018-07-15T07:07:20.450Z,29.20
2018-07-15T07:11:24.831Z,28.20
2018-07-15T07:15:28.389Z,28.10
2018-07-15T07:19:32.036Z,29.30
2018-07-15T07:23:37.740Z,29.00
2018-07-15T07:27:43.162Z,28.50
2018-07-15T07:35:50.321Z,28.70
2018-07-15T07:39:57.102Z,28.90
2018-07-15T07:44:00.784Z,29.60
2018-07-15T07:48:04.413Z,29.90
2018-07-15T07:52:08.933Z,29.10
2018-07-15T07:56:12.739Z,29.20
2018-07-15T08:00:16.690Z,28.90
2018-07-15T08:04:20.225Z,29.40
2018-07-15T08:08:33.203Z,28.80
2018-07-15T08:12:37.786Z,29.20
2018-07-15T08:16:42.796Z,29.00
2018-07-15T08:20:46.438Z,29.30
2018-07-15T08:24:50.086Z,30.40
2018-07-15T08:28:53.634Z,31.00
2018-07-15T08:37:08.014Z,30.00
2018-07-15T08:41:12.846Z,30.50
2018-07-15T08:45:17.486Z,30.40
2018-07-15T08:49:25.800Z,30.50
2018-07-15T08:53:29.346Z,30.20
2018-07-15T08:57:33.367Z,30.90
2018-07-15T09:01:37.521Z,31.30
2018-07-15T09:05:41.160Z,30.70
2018-07-15T09:09:45.708Z,31.20
2018-07-15T09:13:49.466Z,31.00
2018-07-15T09:17:53.144Z,32.00
2018-07-15T09:21:56.728Z,31.80
2018-07-15T09:26:00.351Z,31.60
2018-07-15T09:30:03.982Z,31.20
2018-07-15T09:34:07.570Z,31.20
2018-07-15T09:38:11.117Z,31.70
2018-07-15T09:42:14.729Z,31.70
2018-07-15T09:46:25.264Z,31.80
2018-07-15T09:50:28.822Z,31.60
2018-07-15T09:54:39.535Z,32.60
2018-07-15T09:58:45.264Z,32.50
2018-07-15T10:02:49.000Z,32.90
2018-07-15T10:06:52.562Z,32.00
2018-07-15T10:10:56.141Z,32.10
2018-07-15T10:14:59.707Z,32.80
2018-07-15T10:19:08.588Z,32.80
2018-07-15T10:23:12.089Z,32.40
2018-07-15T10:27:15.826Z,32.80
2018-07-15T10:31:19.477Z,32.80
2018-07-15T10:35:23.136Z,32.40
2018-07-15T10:39:26.688Z,32.40
2018-07-15T10:43:30.835Z,32.30
2018-07-15T10:47:34.435Z,32.40
2018-07-15T10:51:38.082Z,32.40
2018-07-15T10:55:41.673Z,32.00
2018-07-15T10:59:45.254Z,31.80
2018-07-15T11:03:49.029Z,31.00
2018-07-15T11:07:52.708Z,31.00
2018-07-15T11:11:57.293Z,31.20
2018-07-15T11:16:00.987Z,31.30
2018-07-15T11:20:04.613Z,32.50
2018-07-15T11:24:09.381Z,32.80
2018-07-15T11:28:12.947Z,32.00
2018-07-15T11:36:20.985Z,32.40
2018-07-15T11:40:24.819Z,32.20
2018-07-15T11:44:29.111Z,32.40
2018-07-15T11:48:33.134Z,31.90
2018-07-15T11:52:42.321Z,32.30
2018-07-15T11:56:57.987Z,30.70
2018-07-15T12:01:01.582Z,30.20
2018-07-15T12:05:06.489Z,30.90
2018-07-15T12:09:10.134Z,31.70
2018-07-15T12:13:13.878Z,32.00
2018-07-15T12:17:17.446Z,31.80
2018-07-15T12:21:21.092Z,31.50
2018-07-15T12:25:24.705Z,30.90
2018-07-15T12:29:28.238Z,30.40
2018-07-15T12:33:31.734Z,30.70
2018-07-15T12:37:35.368Z,31.70
2018-07-15T12:41:39.021Z,30.90
2018-07-15T12:45:42.632Z,30.70
2018-07-15T12:49:46.225Z,29.90
2018-07-15T12:53:49.795Z,30.00
2018-07-15T12:57:56.938Z,30.20
2018-07-15T13:02:00.691Z,30.40
2018-07-15T13:06:04.404Z,29.70
2018-07-15T13:10:14.064Z,29.20
2018-07-15T13:14:18.634Z,29.50
2018-07-15T13:18:22.292Z,29.20
2018-07-15T13:22:25.899Z,28.70
2018-07-15T13:26:29.623Z,28.50
2018-07-15T13:30:35.357Z,28.20
2018-07-15T13:34:39.063Z,28.10
2018-07-15T13:38:43.674Z,28.30
2018-07-15T13:42:47.356Z,29.10
2018-07-15T13:46:55.659Z,28.20
2018-07-15T13:50:59.413Z,27.70
2018-07-15T13:55:04.003Z,27.70
2018-07-15T13:59:07.560Z,28.00
2018-07-15T14:03:11.080Z,27.80
2018-07-15T14:07:14.866Z,27.60
2018-07-15T14:11:24.605Z,27.60
2018-07-15T14:15:31.709Z,27.50
2018-07-15T14:23:45.419Z,27.60
2018-07-15T14:27:49.018Z,27.30
2018-07-15T14:31:52.975Z,27.20
2018-07-15T14:35:56.555Z,27.80
2018-07-15T14:40:02.591Z,28.20
2018-07-15T14:44:06.436Z,28.40
2018-07-15T14:48:10.147Z,28.50
2018-07-15T14:52:20.850Z,28.60
2018-07-15T14:56:24.623Z,28.70
2018-07-15T15:00:28.245Z,28.30
2018-07-15T15:04:31.931Z,27.80
2018-07-15T15:08:36.515Z,27.40
2018-07-15T15:12:41.139Z,27.90
2018-07-15T15:16:48.850Z,28.00
2018-07-15T15:20:52.447Z,27.40
2018-07-15T15:24:56.170Z,27.30
2018-07-15T15:33:09.990Z,27.30
2018-07-15T15:37:16.174Z,27.50
2018-07-15T15:41:21.324Z,27.20
2018-07-15T15:45:36.939Z,27.80
2018-07-15T15:49:41.755Z,28.00
2018-07-15T15:53:46.519Z,28.40
2018-07-15T15:57:50.020Z,27.90
2018-07-15T16:01:53.751Z,27.80
2018-07-15T16:05:58.578Z,27.70
2018-07-15T16:10:02.334Z,28.50
2018-07-15T16:14:19.305Z,28.00
2018-07-15T16:18:22.873Z,27.60
2018-07-15T16:22:26.422Z,27.40
2018-07-15T16:26:30.031Z,28.20
2018-07-15T16:30:33.582Z,28.60
2018-07-15T16:34:37.218Z,28.30
2018-07-15T16:38:40.710Z,27.70
2018-07-15T16:42:48.381Z,27.10
2018-07-15T16:46:52.438Z,27.70
2018-07-15T16:50:56.091Z,27.30
2018-07-15T16:55:04.731Z,26.90
2018-07-15T16:59:08.502Z,26.60
2018-07-15T17:03:12.418Z,26.30
2018-07-15T17:07:20.085Z,26.00
2018-07-15T17:11:23.854Z,26.00
2018-07-15T17:15:33.215Z,26.00
2018-07-15T17:19:36.978Z,26.70
2018-07-15T17:23:40.988Z,27.20
2018-07-15T17:27:47.001Z,27.60
2018-07-15T17:31:51.510Z,27.60
2018-07-15T17:35:55.031Z,27.80
2018-07-15T17:40:00.171Z,27.80
2018-07-15T17:44:05.760Z,27.70
2018-07-15T17:48:09.305Z,27.70
2018-07-15T17:52:13.954Z,27.50
2018-07-15T17:56:18.690Z,27.30
2018-07-15T18:00:23.304Z,27.20
2018-07-15T18:04:28.029Z,27.10
2018-07-15T18:08:31.570Z,26.90
2018-07-15T18:12:37.402Z,26.70
2018-07-15T18:16:41.938Z,26.70
2018-07-15T18:20:45.899Z,26.60
2018-07-15T18:24:49.481Z,26.30
2018-07-15T18:28:53.381Z,26.30
2018-07-15T18:32:57.155Z,26.00
2018-07-15T18:37:00.795Z,25.90
2018-07-15T18:41:05.413Z,25.80
2018-07-15T18:45:09.143Z,25.70
2018-07-15T18:49:12.802Z,25.40
2018-07-15T18:53:16.374Z,25.30
2018-07-15T18:57:19.964Z,25.30
2018-07-15T19:01:23.827Z,25.30
2018-07-15T19:05:32.818Z,25.20
2018-07-15T19:09:36.666Z,25.10
2018-07-15T19:13:40.351Z,24.90
2018-07-15T19:17:45.152Z,24.70
2018-07-15T19:21:53.222Z,24.70
2018-07-15T19:25:57.185Z,24.70
2018-07-15T19:30:02.854Z,24.60
2018-07-15T19:34:07.608Z,24.50
2018-07-15T19:38:11.221Z,24.50
2018-07-15T19:42:14.781Z,24.50
2018-07-15T19:46:19.434Z,24.40
2018-07-15T19:50:23.207Z,24.30
2018-07-15T19:54:26.817Z,24.30
2018-07-15T19:58:30.373Z,24.30
2018-07-15T20:02:33.999Z,24.30
2018-07-15T20:06:38.124Z,24.30
2018-07-15T20:10:41.739Z,24.10
2018-07-15T20:14:45.417Z,24.10
2018-07-15T20:18:48.989Z,24.20
2018-07-15T20:22:52.536Z,24.20
2018-07-15T20:26:56.070Z,24.20
2018-07-15T20:30:59.626Z,24.10
2018-07-15T20:35:03.486Z,24.00
2018-07-15T20:39:10.923Z,23.90
2018-07-15T20:43:14.544Z,23.90
2018-07-15T20:47:20.102Z,23.70
2018-07-15T20:51:24.693Z,23.00
2018-07-15T20:55:29.042Z,22.50
2018-07-15T20:59:32.683Z,22.10
2018-07-15T21:03:36.342Z,21.90
2018-07-15T21:07:39.898Z,22.10
2018-07-15T21:11:43.462Z,22.20
2018-07-15T21:15:47.164Z,22.30
2018-07-15T21:19:50.875Z,22.20
2018-07-15T21:23:54.562Z,22.20
2018-07-15T21:27:58.178Z,21.90
2018-07-15T21:32:01.712Z,21.70
2018-07-15T21:36:05.417Z,21.70
2018-07-15T21:40:21.598Z,21.90
2018-07-15T21:44:25.187Z,21.70
2018-07-15T21:48:29.006Z,21.60
2018-07-15T21:52:34.982Z,21.60
2018-07-15T21:57:02.051Z,21.60
2018-07-15T22:01:50.469Z,21.30
2018-07-15T22:05:54.640Z,21.30
2018-07-15T22:10:12.335Z,21.20
2018-07-15T22:14:15.959Z,21.30
2018-07-15T22:18:21.626Z,21.50
2018-07-15T22:22:25.352Z,21.30
2018-07-15T22:26:28.955Z,21.20
2018-07-15T22:30:32.636Z,21.60
2018-07-15T22:34:37.523Z,21.40
2018-07-15T22:38:45.474Z,21.00
2018-07-15T22:42:49.393Z,20.80
2018-07-15T22:46:53.975Z,20.80
2018-07-15T22:50:58.074Z,20.70
2018-07-15T22:55:19.723Z,20.60
2018-07-15T22:59:27.154Z,20.60
2018-07-15T23:03:45.667Z,20.70
2018-07-15T23:07:50.248Z,20.50
2018-07-15T23:11:53.854Z,20.30
2018-07-15T23:15:57.418Z,20.60
2018-07-15T23:20:00.990Z,20.30
2018-07-15T23:24:08.898Z,20.90
2018-07-15T23:28:13.590Z,20.60
2018-07-15T23:32:17.151Z,20.70
2018-07-15T23:36:21.082Z,20.40
2018-07-15T23:40:30.730Z,19.90
2018-07-15T23:44:34.259Z,19.70
2018-07-15T23:48:37.919Z,19.80
2018-07-15T23:52:41.465Z,19.60
2018-07-15T23:56:44.982Z,19.50
